This is the latest recevied weather packets stored in our database for station/object W1REE. If no packets are shown the sender has not sent any weather packets the latest 10 day(s).
| Time | Temp. | Humidity | Pressure | Rain* | Wind** | Luminosity | Snow |
|---|---|---|---|---|---|---|---|
| 1777693842 | 6.67° C | 50% | 1023.7 hPa | 0 mm | - | 0 W/m² | - |
| 1777693540 | 6.67° C | 51% | 1023.7 hPa | 0 mm | - | 0 W/m² | - |
| 1777693238 | 6.67° C | 52% | 1023.6 hPa | 0 mm | - | 0 W/m² | - |
| 1777692936 | 6.67° C | 51% | 1023.7 hPa | 0 mm | - | 0 W/m² | - |
| 1777692633 | 6.67° C | 50% | 1023.5 hPa | 0 mm | - | 0 W/m² | - |
| 1777692329 | 6.67° C | 51% | 1023.5 hPa | 0 mm | - | 0 W/m² | - |
| 1777692026 | 7.22° C | 50% | 1023.6 hPa | 0 mm | - | 0 W/m² | - |
| 1777691724 | 7.22° C | 50% | 1023.7 hPa | 0 mm | - | 0 W/m² | - |
| 1777691422 | 7.22° C | 51% | 1023.4 hPa | 0 mm | - | 0 W/m² | - |
| 1777691120 | 7.22° C | 50% | 1023.4 hPa | 0 mm | - | 0 W/m² | - |
| 1777690818 | 7.22° C | 51% | 1023.1 hPa | 0 mm | - | 0 W/m² | - |
| 1777690515 | 7.22° C | 51% | 1023.2 hPa | 0 mm | - | 0 W/m² | - |
| 1777690213 | 7.22° C | 52% | 1023.2 hPa | 0 mm | - | 0 W/m² | - |
| 1777689910 | 7.22° C | 52% | 1023.2 hPa | 0 mm | - | 0 W/m² | - |
| 1777689608 | 7.22° C | 51% | 1023 hPa | 0 mm | - | 0 W/m² | - |
| 1777689305 | 7.22° C | 53% | 1023.1 hPa | 0 mm | - | 0 W/m² | - |
| 1777689003 | 7.22° C | 52% | 1022.9 hPa | 0 mm | - | 0 W/m² | - |
| 1777688699 | 7.22° C | 52% | 1023 hPa | 0 mm | - | 0 W/m² | - |
| 1777688396 | 7.22° C | 53% | 1022.8 hPa | 0 mm | - | 0 W/m² | - |
| 1777688094 | 7.78° C | 53% | 1022.6 hPa | 0 mm | - | 0 W/m² | - |
| 1777687790 | 7.78° C | 53% | 1022.8 hPa | 0 mm | - | 0 W/m² | - |
| 1777674155 | 12.78° C | 34% | 1021.3 hPa | 0 mm | - | 167 W/m² | - |
| 1777673549 | 13.33° C | 33% | 1021.4 hPa | 0 mm | - | 141 W/m² | - |
| 1777673246 | 13.89° C | 31% | 1021.7 hPa | 0 mm | - | 563 W/m² | - |
| 1777672640 | 14.44° C | 31% | 1021.6 hPa | 0 mm | - | 686 W/m² | - |
* Rain latest hour (hover to see other rain measurements)
** Current wind speed in m/s (hover to see current wind gust speed)